Time;durP1;ratioP1;P1;durP2;ratioP2;P2;SDS_P1;SDS_P2;PMS_P1;PMS_P2;Temp;Humidity;BMP_temperature;BMP_pressure;BME280_temperature;BME280_humidity;BME280_pressure;Samples;Min_cycle;Max_cycle;Signal;HPM_P1;HPM_P2
2023/07/26 00:01:56;;;;;;;606.88;570.45;;;;;;;16.39;62.70;99389.63;5044000;28;20692;-70
2023/07/26 00:04:21;;;;;;;647.38;608.33;;;;;;;16.17;63.50;99385.72;5044475;28;20092;-71
2023/07/26 00:06:46;;;;;;;525.00;495.52;;;;;;;16.17;64.01;99393.16;5044428;28;20190;-70
2023/07/26 00:09:12;;;;;;;578.45;544.63;;;;;;;16.26;63.55;99385.78;5044016;28;20433;-69
2023/07/26 00:11:37;;;;;;;542.55;512.47;;;;;;;16.22;63.88;99393.03;5044532;28;20025;-69
2023/07/26 00:14:04;;;;;;;483.90;456.88;;;;;;;16.17;63.99;99382.97;5044387;28;20029;-69
2023/07/26 00:16:30;;;;;;;633.22;595.35;;;;;;;16.19;64.13;99393.69;5044546;28;20118;-70
2023/07/26 00:18:57;;;;;;;484.63;458.55;;;;;;;16.21;64.37;99389.47;5044269;28;20048;-69
2023/07/26 00:21:22;;;;;;;620.15;582.80;;;;;;;16.34;63.95;99386.97;5044201;28;20749;-69
2023/07/26 00:23:47;;;;;;;639.88;600.15;;;;;;;16.36;63.37;99387.47;5044077;28;20036;-70
2023/07/26 00:26:13;;;;;;;464.43;438.20;;;;;;;16.20;63.38;99390.59;5044418;28;20124;-70
2023/07/26 00:28:38;;;;;;;624.90;585.85;;;;;;;16.30;63.15;99389.53;5043968;28;20605;-70
2023/07/26 00:31:03;;;;;;;544.00;510.35;;;;;;;16.38;62.59;99396.22;5044266;28;20497;-70
2023/07/26 00:33:28;;;;;;;645.25;603.80;;;;;;;16.54;62.46;99395.81;5043836;28;20119;-71
2023/07/26 00:35:54;;;;;;;665.10;623.60;;;;;;;16.64;62.16;99394.75;5044128;28;20087;-70
2023/07/26 00:38:19;;;;;;;702.35;657.30;;;;;;;16.72;61.97;99388.47;5044036;28;20266;-69
2023/07/26 00:40:44;;;;;;;424.80;400.97;;;;;;;16.54;62.45;99404.91;5043327;28;20064;-70
2023/07/26 00:43:10;;;;;;;711.67;660.45;;;;;;;16.47;62.24;99403.72;5043667;28;20757;-70
2023/07/26 00:45:38;;;;;;;369.83;351.13;;;;;;;16.55;62.65;99400.22;5043901;28;20067;-70
2023/07/26 00:48:04;;;;;;;552.22;521.13;;;;;;;16.72;62.40;99402.25;5043780;28;20289;-70
2023/07/26 00:50:30;;;;;;;655.40;614.15;;;;;;;16.76;61.89;99396.94;5042644;28;20033;-70
2023/07/26 00:52:55;;;;;;;564.10;530.08;;;;;;;16.55;62.57;99401.03;5043227;28;20072;-70
2023/07/26 00:55:20;;;;;;;661.53;617.50;;;;;;;16.55;62.86;99402.97;5043973;28;20041;-69
2023/07/26 00:57:46;;;;;;;363.85;344.20;;;;;;;16.55;63.15;99403.78;5043537;28;20460;-70
2023/07/26 01:00:13;;;;;;;520.28;488.50;;;;;;;16.64;62.85;99398.31;5043309;28;20118;-72
2023/07/26 01:02:39;;;;;;;485.73;456.55;;;;;;;16.48;63.40;99405.34;5044503;28;20056;-77
2023/07/26 01:05:07;;;;;;;482.23;453.17;;;;;;;16.58;62.99;99402.31;5046882;28;20033;-77
2023/07/26 01:08:01;;;;;;;425.52;401.02;;;;;;;16.59;62.61;99403.97;5046745;28;20043;-77
2023/07/26 01:10:49;;;;;;;712.55;667.67;;;;;;;16.60;62.86;99411.09;5046373;28;20048;-77
2023/07/26 01:13:22;;;;;;;668.45;625.10;;;;;;;16.64;63.08;99403.00;5046620;28;20048;-77
2023/07/26 01:15:49;;;;;;;640.38;599.35;;;;;;;16.68;62.93;99402.06;5046868;28;20029;-78
2023/07/26 01:18:16;;;;;;;659.67;618.78;;;;;;;16.65;63.42;99407.41;5046608;28;20041;-77
2023/07/26 01:20:41;;;;;;;630.03;592.50;;;;;;;16.57;63.34;99409.78;5045907;28;20442;-78
2023/07/26 01:23:07;;;;;;;618.80;582.20;;;;;;;16.64;63.67;99397.50;5046455;28;20162;-78
2023/07/26 01:25:34;;;;;;;440.02;416.60;;;;;;;16.69;63.17;99400.97;5047152;28;20078;-78
2023/07/26 01:27:59;;;;;;;375.95;356.38;;;;;;;16.65;63.37;99402.72;5046060;28;20489;-77
2023/07/26 01:30:29;;;;;;;465.58;441.98;;;;;;;16.43;63.29;99398.84;5045583;28;20045;-77
2023/07/26 01:32:57;;;;;;;388.05;368.17;;;;;;;16.49;63.54;99398.72;5046778;28;20091;-77
2023/07/26 01:35:23;;;;;;;626.13;584.78;;;;;;;16.33;63.52;99393.63;5046606;28;20077;-79
2023/07/26 01:37:50;;;;;;;475.42;447.48;;;;;;;16.48;63.44;99388.81;5046417;28;20044;-77
2023/07/26 01:40:17;;;;;;;534.47;500.38;;;;;;;16.47;63.43;99395.47;5045464;28;20056;-77
2023/07/26 01:42:42;;;;;;;429.65;404.70;;;;;;;16.55;63.33;99391.97;5046863;28;20466;-77
2023/07/26 01:45:09;;;;;;;455.15;427.52;;;;;;;16.40;63.46;99391.22;5045988;28;20028;-77
2023/07/26 01:47:34;;;;;;;505.15;474.58;;;;;;;16.57;63.42;99396.03;5045974;28;20485;-76
2023/07/26 01:50:00;;;;;;;597.20;560.22;;;;;;;16.63;63.43;99395.91;5045150;28;20041;-77
2023/07/26 01:52:26;;;;;;;556.22;523.33;;;;;;;16.59;63.33;99392.97;5046070;28;20111;-78
2023/07/26 01:54:51;;;;;;;544.28;514.47;;;;;;;16.49;63.74;99398.72;5045674;28;20106;-77
2023/07/26 01:57:17;;;;;;;503.27;475.13;;;;;;;16.40;63.94;99391.22;5044890;28;20044;-77
2023/07/26 01:59:42;;;;;;;533.70;501.80;;;;;;;16.32;63.85;99400.22;5044314;28;20292;-76
2023/07/26 02:02:07;;;;;;;549.72;515.05;;;;;;;16.28;64.06;99393.72;5044668;28;20078;-77
2023/07/26 02:04:33;;;;;;;470.77;440.00;;;;;;;16.15;64.10;99396.22;5046200;28;20053;-77
2023/07/26 02:06:58;;;;;;;525.43;493.03;;;;;;;16.22;64.16;99399.34;5046108;28;20033;-77
2023/07/26 02:09:23;;;;;;;520.60;489.40;;;;;;;16.26;64.00;99395.97;5045022;28;20262;-76
2023/07/26 02:11:49;;;;;;;642.42;597.38;;;;;;;16.21;64.17;99397.72;5045779;28;20327;-77
2023/07/26 02:14:15;;;;;;;844.28;780.55;;;;;;;16.22;64.03;99396.59;5045582;28;20159;-76
2023/07/26 02:16:40;;;;;;;865.60;803.75;;;;;;;16.37;63.96;99397.38;5045562;28;20040;-78
2023/07/26 02:19:06;;;;;;;800.87;744.83;;;;;;;16.33;63.80;99408.16;5045773;28;20045;-76
2023/07/26 02:21:31;;;;;;;898.97;836.17;;;;;;;16.29;64.14;99407.16;5045835;28;20300;-77
2023/07/26 02:23:56;;;;;;;809.60;753.03;;;;;;;16.40;63.81;99396.72;5045953;28;20799;-76
2023/07/26 02:26:21;;;;;;;860.97;800.63;;;;;;;16.39;63.90;99392.38;5045623;28;20033;-77
2023/07/26 02:28:47;;;;;;;907.60;840.93;;;;;;;16.38;63.53;99398.97;5045083;28;20040;-77
2023/07/26 02:31:12;;;;;;;1050.00;964.60;;;;;;;16.30;63.79;99403.28;5045932;28;20265;-78
2023/07/26 02:33:37;;;;;;;668.03;621.60;;;;;;;16.28;63.72;99404.72;5045628;28;20275;-77
2023/07/26 02:36:03;;;;;;;665.33;618.13;;;;;;;16.26;63.86;99407.78;5045699;28;20045;-77
2023/07/26 02:38:28;;;;;;;497.40;466.13;;;;;;;16.30;63.92;99396.97;5045731;28;20686;-77
2023/07/26 02:40:53;;;;;;;619.93;581.23;;;;;;;16.28;63.94;99399.22;5045591;28;21397;-77
2023/07/26 02:43:19;;;;;;;508.80;476.17;;;;;;;16.22;64.20;99407.59;5027444;28;20356;-77
2023/07/26 02:45:44;;;;;;;556.20;518.40;;;;;;;16.18;64.36;99395.59;5045601;28;20626;-77
2023/07/26 02:48:09;;;;;;;609.28;570.15;;;;;;;16.13;64.61;99392.97;5045589;28;20305;-77
2023/07/26 02:50:34;;;;;;;591.03;550.60;;;;;;;16.08;64.44;99390.34;5045086;28;20146;-77
2023/07/26 02:53:00;;;;;;;457.13;426.52;;;;;;;16.20;64.28;99387.84;5045909;28;20270;-77
2023/07/26 02:55:25;;;;;;;450.80;423.30;;;;;;;16.20;64.38;99395.28;5045217;28;20044;-77
2023/07/26 02:57:51;;;;;;;405.73;377.63;;;;;;;16.25;64.61;99388.84;5044981;28;20916;-77
2023/07/26 03:00:16;;;;;;;1102.22;998.50;;;;;;;16.34;64.15;99397.97;5044540;28;20036;-78
2023/07/26 03:02:42;;;;;;;1022.25;940.63;;;;;;;16.62;63.65;99405.28;5045542;28;20056;-78
2023/07/26 03:05:08;;;;;;;447.48;420.90;;;;;;;16.75;62.89;99420.06;5045327;28;20387;-78
2023/07/26 03:07:33;;;;;;;298.13;283.13;;;;;;;16.45;64.01;99424.09;5045003;28;20116;-77
2023/07/26 03:09:59;;;;;;;359.00;341.33;;;;;;;16.38;64.70;99429.22;5044948;28;20143;-77
2023/07/26 03:12:24;;;;;;;293.02;279.00;;;;;;;16.45;65.02;99409.56;5044769;28;20438;-78
2023/07/26 03:14:49;;;;;;;312.63;297.87;;;;;;;16.17;66.63;99404.97;5045161;28;20120;-78
2023/07/26 03:17:15;;;;;;;346.48;329.23;;;;;;;16.26;66.44;99412.47;5045229;28;20323;-78
2023/07/26 03:19:40;;;;;;;315.23;297.13;;;;;;;16.43;66.90;99411.78;5045231;28;20040;-77
2023/07/26 03:22:05;;;;;;;425.67;400.67;;;;;;;16.33;67.16;99418.38;5048775;28;20257;-77
2023/07/26 03:24:31;;;;;;;407.55;386.52;;;;;;;16.36;67.53;99423.22;5048913;28;20253;-78
2023/07/26 03:26:56;;;;;;;446.00;420.88;;;;;;;16.51;67.37;99423.97;5049416;28;20067;-77
2023/07/26 03:29:21;;;;;;;541.37;511.40;;;;;;;16.36;67.55;99425.97;5047968;28;20037;-77
2023/07/26 03:31:46;;;;;;;546.05;514.22;;;;;;;16.22;67.92;99429.59;5048734;28;20253;-77
2023/07/26 03:34:12;;;;;;;488.60;458.73;;;;;;;16.25;67.85;99428.16;5048416;28;20090;-78
2023/07/26 03:36:37;;;;;;;638.00;599.50;;;;;;;16.38;67.68;99423.72;5047984;28;20731;-77
2023/07/26 03:39:02;;;;;;;463.05;436.77;;;;;;;16.30;68.62;99427.22;5048075;28;20324;-77
2023/07/26 03:41:28;;;;;;;621.80;584.90;;;;;;;16.31;68.53;99426.13;5048586;28;20399;-77
2023/07/26 03:43:53;;;;;;;560.08;528.15;;;;;;;16.38;68.25;99426.47;5048646;28;20044;-77
2023/07/26 03:46:18;;;;;;;660.20;618.67;;;;;;;16.32;68.12;99430.47;5048305;28;20029;-76
2023/07/26 03:48:43;;;;;;;575.27;540.90;;;;;;;16.20;68.85;99418.09;5047809;28;20262;-76
2023/07/26 03:51:09;;;;;;;600.47;560.55;;;;;;;15.98;69.55;99414.19;5048196;28;20261;-77
2023/07/26 03:53:34;;;;;;;567.57;530.30;;;;;;;16.04;69.44;99411.34;5047253;28;20060;-77
2023/07/26 03:55:59;;;;;;;588.03;551.28;;;;;;;16.11;69.25;99417.19;5048133;28;20258;-77
2023/07/26 03:58:24;;;;;;;699.97;652.65;;;;;;;15.94;69.40;99421.41;5048116;28;20480;-78
2023/07/26 04:00:50;;;;;;;559.77;524.30;;;;;;;16.05;69.60;99430.25;5047715;28;20060;-76
2023/07/26 04:03:16;;;;;;;581.67;545.47;;;;;;;16.13;69.19;99423.22;5047942;28;20274;-76
2023/07/26 04:05:42;;;;;;;510.45;481.77;;;;;;;16.26;68.82;99424.28;5048177;28;20037;-77
2023/07/26 04:08:07;;;;;;;434.92;412.45;;;;;;;16.31;68.37;99426.13;5047492;28;20040;-77
2023/07/26 04:10:32;;;;;;;440.20;417.13;;;;;;;16.20;68.77;99431.84;5046668;28;20083;-76
2023/07/26 04:12:58;;;;;;;345.52;328.83;;;;;;;16.24;69.01;99431.22;5046583;28;20561;-76
2023/07/26 04:15:23;;;;;;;243.63;232.30;;;;;;;16.38;68.45;99420.16;5046799;28;20029;-77
2023/07/26 04:17:48;;;;;;;207.07;198.03;;;;;;;16.32;68.61;99423.03;5047929;28;20033;-78
2023/07/26 04:20:14;;;;;;;133.95;128.27;;;;;;;16.31;68.29;99428.88;5047650;28;21026;-79
2023/07/26 04:22:39;;;;;;;115.93;110.60;;;;;;;16.23;68.47;99435.94;5047386;28;20041;-79
2023/07/26 04:25:05;;;;;;;130.90;124.63;;;;;;;16.19;68.77;99438.47;5047447;28;20033;-78
2023/07/26 04:27:30;;;;;;;147.05;140.05;;;;;;;16.16;69.08;99460.28;5047745;28;20282;-78
2023/07/26 04:29:55;;;;;;;401.20;376.53;;;;;;;15.83;70.40;99483.22;5047031;28;20632;-75
2023/07/26 04:32:21;;;;;;;153.23;145.63;;;;;;;16.08;70.44;99464.56;5046666;28;20259;-78
2023/07/26 04:34:46;;;;;;;262.67;250.47;;;;;;;16.04;70.67;99463.56;5046830;28;21044;-78
2023/07/26 04:37:11;;;;;;;505.80;477.33;;;;;;;15.93;71.80;99466.50;5046997;28;20258;-77
2023/07/26 04:39:36;;;;;;;353.90;336.43;;;;;;;15.83;72.34;99467.53;5046575;28;20305;-78
2023/07/26 04:42:02;;;;;;;388.85;367.55;;;;;;;15.91;71.85;99463.25;5046812;28;21000;-78
2023/07/26 04:44:27;;;;;;;331.77;315.90;;;;;;;15.78;72.77;99462.16;5046853;28;20141;-78
2023/07/26 04:46:52;;;;;;;650.05;611.28;;;;;;;15.97;72.46;99450.22;5047625;28;20152;-79
2023/07/26 04:49:18;;;;;;;479.52;453.67;;;;;;;16.01;72.35;99453.97;5047343;28;20103;-79
2023/07/26 04:51:43;;;;;;;407.07;384.73;;;;;;;15.80;72.23;99459.09;5047519;28;20124;-78
2023/07/26 04:54:08;;;;;;;448.37;421.50;;;;;;;15.59;72.41;99459.53;5047465;28;20262;-79
2023/07/26 04:56:33;;;;;;;467.58;439.00;;;;;;;15.56;72.36;99452.69;5047381;28;20324;-78
2023/07/26 04:58:59;;;;;;;459.20;433.47;;;;;;;15.76;72.50;99461.66;5046294;28;20045;-78
2023/07/26 05:01:24;;;;;;;549.43;516.77;;;;;;;15.87;72.02;99452.06;5046861;28;20739;-78
2023/07/26 05:03:49;;;;;;;411.65;388.98;;;;;;;15.97;72.16;99456.53;5046507;28;20282;-78
2023/07/26 05:06:15;;;;;;;425.10;401.52;;;;;;;15.99;71.50;99459.78;5046351;28;20029;-78
2023/07/26 05:08:40;;;;;;;508.92;479.85;;;;;;;15.90;71.96;99461.63;5046124;28;20079;-79
2023/07/26 05:11:05;;;;;;;535.13;503.97;;;;;;;16.20;71.48;99456.59;5046842;28;20029;-78
2023/07/26 05:13:31;;;;;;;556.08;524.83;;;;;;;16.28;71.19;99465.22;5046560;28;20749;-79
2023/07/26 05:15:56;;;;;;;338.50;322.02;;;;;;;16.22;71.31;99468.13;5046569;28;20688;-79
2023/07/26 05:18:22;;;;;;;517.33;487.00;;;;;;;15.97;70.38;99466.69;5046591;28;21085;-79
2023/07/26 05:20:51;;;;;;;499.67;469.60;;;;;;;16.01;70.95;99466.91;5046274;28;20029;-79
2023/07/26 05:23:19;;;;;;;428.00;405.30;;;;;;;16.04;70.86;99471.81;5046235;28;20033;-78
2023/07/26 05:25:44;;;;;;;563.78;530.65;;;;;;;16.02;70.77;99471.31;5046519;28;20043;-79
2023/07/26 05:28:10;;;;;;;748.40;700.37;;;;;;;16.07;70.62;99476.69;5046444;28;21212;-78
2023/07/26 05:30:40;;;;;;;495.98;466.10;;;;;;;15.91;70.38;99479.75;5045754;28;20253;-79
2023/07/26 05:33:06;;;;;;;742.67;693.97;;;;;;;15.97;71.05;99472.19;5046384;28;20040;-79
2023/07/26 05:35:31;;;;;;;663.83;616.58;;;;;;;15.96;70.74;99471.41;5046578;28;20029;-78
2023/07/26 05:37:56;;;;;;;497.73;465.50;;;;;;;16.02;70.46;99474.06;5046771;28;20115;-78
2023/07/26 05:40:22;;;;;;;671.50;624.50;;;;;;;15.99;70.82;99465.28;5045854;28;20063;-77
2023/07/26 05:42:47;;;;;;;793.87;738.63;;;;;;;15.97;71.24;99467.53;5044959;28;20505;-71
2023/07/26 05:45:12;;;;;;;618.33;576.58;;;;;;;15.94;71.12;99465.41;5042550;28;20292;-71
2023/07/26 05:47:38;;;;;;;740.93;690.07;;;;;;;16.06;70.92;99466.81;5042855;28;20116;-71
2023/07/26 05:50:10;;;;;;;683.40;639.10;;;;;;;16.04;70.92;99466.31;5042587;28;20274;-71
2023/07/26 05:52:35;;;;;;;804.63;747.78;;;;;;;16.06;71.20;99467.66;5042917;28;20040;-71
2023/07/26 05:55:01;;;;;;;590.50;545.57;;;;;;;16.12;71.31;99464.78;5042181;28;20095;-70
2023/07/26 05:57:26;;;;;;;713.88;659.80;;;;;;;16.24;71.09;99473.28;5042115;28;20389;-71
2023/07/26 05:59:51;;;;;;;335.02;315.60;;;;;;;16.17;71.49;99470.97;5042498;28;20039;-71
2023/07/26 06:02:16;;;;;;;349.50;331.08;;;;;;;16.17;71.58;99468.22;5042290;28;20110;-71
2023/07/26 06:04:42;;;;;;;568.17;528.87;;;;;;;15.95;71.59;99475.25;5042564;28;20364;-71
2023/07/26 06:07:07;;;;;;;689.40;636.73;;;;;;;15.69;70.67;99462.06;5042187;28;20282;-70
2023/07/26 06:09:33;;;;;;;294.83;280.35;;;;;;;15.95;71.36;99467.00;5042099;28;20258;-71
2023/07/26 06:11:59;;;;;;;419.40;391.88;;;;;;;16.05;71.31;99470.72;5041884;28;20416;-72
2023/07/26 06:14:24;;;;;;;663.95;611.67;;;;;;;15.93;71.87;99465.69;5042633;28;20107;-72
2023/07/26 06:16:50;;;;;;;661.72;612.67;;;;;;;15.91;72.54;99468.75;5042178;28;20079;-71
2023/07/26 06:19:16;;;;;;;489.55;456.65;;;;;;;15.89;71.89;99471.00;5042055;28;20703;-71
2023/07/26 06:21:41;;;;;;;352.95;333.60;;;;;;;15.92;71.72;99473.16;5042050;28;20036;-71
2023/07/26 06:24:06;;;;;;;540.80;504.27;;;;;;;15.95;72.30;99475.25;5041911;28;20029;-71
2023/07/26 06:26:31;;;;;;;369.60;344.17;;;;;;;15.97;72.36;99473.03;5041964;28;20040;-70
2023/07/26 06:28:57;;;;;;;479.80;450.80;;;;;;;16.13;72.74;99480.16;5042438;28;20258;-71
2023/07/26 06:31:22;;;;;;;717.43;669.93;;;;;;;16.27;72.42;99475.41;5041815;28;20258;-71
2023/07/26 06:33:47;;;;;;;634.27;592.53;;;;;;;16.30;72.12;99477.56;5042341;28;20440;-71
2023/07/26 06:36:12;;;;;;;481.58;453.08;;;;;;;16.36;71.87;99477.44;5023980;28;20292;-70
2023/07/26 06:38:38;;;;;;;644.60;599.97;;;;;;;16.30;71.39;99483.06;5041948;28;20061;-71
2023/07/26 06:41:04;;;;;;;560.17;519.40;;;;;;;16.12;71.31;99482.09;5042200;28;20269;-71
2023/07/26 06:43:29;;;;;;;325.35;304.48;;;;;;;16.19;71.13;99485.22;5042393;28;20262;-70
2023/07/26 06:45:55;;;;;;;273.00;257.85;;;;;;;16.21;71.71;99490.44;5041671;28;20664;-70
2023/07/26 06:48:20;;;;;;;474.07;442.07;;;;;;;16.29;71.40;99484.16;5041851;28;20786;-71
2023/07/26 06:50:45;;;;;;;398.87;372.07;;;;;;;16.28;71.92;99484.47;5041755;28;20267;-71
2023/07/26 06:53:11;;;;;;;294.58;278.40;;;;;;;16.13;71.17;99482.91;5041692;28;20327;-71
2023/07/26 06:55:37;;;;;;;284.75;268.88;;;;;;;16.09;71.92;99488.19;5043750;28;20036;-71
2023/07/26 06:58:03;;;;;;;313.20;296.33;;;;;;;16.18;72.15;99494.59;5046157;28;20064;-71
2023/07/26 07:00:28;;;;;;;435.30;409.48;;;;;;;16.11;71.58;99499.69;5045063;28;20128;-71
2023/07/26 07:03:00;;;;;;;454.23;426.77;;;;;;;16.22;72.11;99501.13;5045855;28;20061;-71
2023/07/26 07:05:27;;;;;;;468.63;439.55;;;;;;;16.19;72.11;99498.97;5045804;28;20262;-71
2023/07/26 07:07:53;;;;;;;421.70;397.75;;;;;;;16.39;72.35;99502.41;5044168;28;21179;-71
2023/07/26 07:10:18;;;;;;;651.92;611.05;;;;;;;16.48;72.25;99501.63;5045754;28;20090;-70
2023/07/26 07:12:44;;;;;;;620.97;581.90;;;;;;;16.36;72.30;99500.25;5045472;28;20474;-71
2023/07/26 07:15:10;;;;;;;534.65;501.35;;;;;;;16.26;72.11;99506.81;5045703;28;20037;-70
2023/07/26 07:17:35;;;;;;;653.17;612.17;;;;;;;16.44;71.76;99507.75;5045730;28;20397;-70
2023/07/26 07:20:00;;;;;;;662.47;621.20;;;;;;;16.56;71.97;99509.13;5045305;28;20037;-71
2023/07/26 07:22:26;;;;;;;617.65;578.42;;;;;;;16.63;72.34;99509.53;5045712;28;20378;-71
2023/07/26 07:24:53;;;;;;;567.80;532.33;;;;;;;16.66;72.40;99513.59;5045209;28;20556;-71
2023/07/26 07:27:18;;;;;;;690.78;645.83;;;;;;;16.62;72.13;99518.13;5045282;28;20041;-71
2023/07/26 07:29:44;;;;;;;530.60;498.10;;;;;;;16.83;71.90;99509.34;5044971;28;20114;-71
2023/07/26 07:32:09;;;;;;;532.78;499.63;;;;;;;16.76;71.48;99518.06;5045570;28;20037;-70
2023/07/26 07:34:34;;;;;;;474.25;446.15;;;;;;;16.86;71.64;99516.97;5045231;28;20036;-71
2023/07/26 07:37:00;;;;;;;427.38;405.45;;;;;;;17.00;71.34;99519.66;5045013;28;20045;-70
2023/07/26 07:39:25;;;;;;;663.27;620.13;;;;;;;17.22;70.81;99512.53;5044925;28;20129;-71
2023/07/26 07:41:51;;;;;;;421.93;397.13;;;;;;;17.07;70.37;99506.25;5045279;28;20323;-70
2023/07/26 07:44:16;;;;;;;546.78;508.95;;;;;;;17.00;69.49;99514.16;5044762;28;20276;-70
2023/07/26 07:46:44;;;;;;;429.38;403.58;;;;;;;17.01;70.09;99513.84;5045143;28;20485;-71
2023/07/26 07:49:09;;;;;;;380.15;358.45;;;;;;;17.07;69.99;99517.28;5044389;28;20037;-70
2023/07/26 07:51:35;;;;;;;476.33;447.08;;;;;;;17.03;69.59;99510.75;5045658;28;20037;-71
2023/07/26 07:54:00;;;;;;;500.10;468.70;;;;;;;17.03;69.01;99516.28;5044911;28;20032;-71
2023/07/26 07:56:25;;;;;;;679.93;631.17;;;;;;;17.08;69.62;99510.66;5044319;28;20360;-72
2023/07/26 07:58:50;;;;;;;721.38;669.15;;;;;;;17.08;69.01;99515.34;5043229;28;20285;-70
2023/07/26 08:01:16;;;;;;;784.85;726.80;;;;;;;17.20;69.20;99518.34;5043778;28;20052;-71
2023/07/26 08:03:41;;;;;;;721.90;668.53;;;;;;;17.23;68.85;99519.66;5043079;28;20130;-71
2023/07/26 08:06:07;;;;;;;731.65;682.80;;;;;;;17.38;68.49;99516.50;5043058;28;20056;-70
2023/07/26 08:08:32;;;;;;;759.20;707.45;;;;;;;17.49;68.31;99516.22;5042762;28;20036;-71
2023/07/26 08:10:57;;;;;;;739.60;688.13;;;;;;;17.54;68.32;99523.50;5043854;28;20037;-71
2023/07/26 08:13:22;;;;;;;797.10;739.53;;;;;;;17.60;68.34;99512.03;5043769;28;20262;-71
2023/07/26 08:15:48;;;;;;;808.60;748.97;;;;;;;17.50;67.95;99518.66;5044024;28;20029;-72
2023/07/26 08:18:13;;;;;;;732.03;678.33;;;;;;;17.41;67.99;99517.00;5044275;28;20628;-71
2023/07/26 08:20:38;;;;;;;763.55;706.33;;;;;;;17.49;67.93;99514.25;5043749;28;20262;-70
2023/07/26 08:23:04;;;;;;;756.78;700.33;;;;;;;17.56;67.17;99519.31;5044368;28;20059;-71
2023/07/26 08:25:30;;;;;;;762.70;702.92;;;;;;;17.59;67.14;99517.88;5044397;28;20091;-71
2023/07/26 08:27:55;;;;;;;827.65;762.70;;;;;;;17.69;67.01;99512.09;5043544;28;20037;-71
2023/07/26 08:30:20;;;;;;;758.53;702.22;;;;;;;17.99;66.81;99514.25;5043890;28;20028;-71
2023/07/26 08:32:46;;;;;;;815.20;751.38;;;;;;;17.80;66.96;99518.09;5043841;28;20115;-71
2023/07/26 08:35:11;;;;;;;782.60;725.97;;;;;;;17.79;66.84;99516.50;5044634;28;20425;-71
2023/07/26 08:37:36;;;;;;;672.22;626.88;;;;;;;17.97;67.00;99517.34;5043544;28;20258;-71
2023/07/26 08:40:02;;;;;;;669.92;626.42;;;;;;;17.79;66.16;99519.25;5043674;28;20032;-71
2023/07/26 08:42:27;;;;;;;738.17;687.05;;;;;;;17.72;65.59;99516.13;5044044;28;20090;-71
2023/07/26 08:44:53;;;;;;;643.55;600.28;;;;;;;17.81;65.72;99522.50;5043988;28;20099;-71
2023/07/26 08:47:22;;;;;;;636.60;594.53;;;;;;;17.86;65.21;99516.00;5042067;28;20512;-71
2023/07/26 08:49:49;;;;;;;608.55;566.92;;;;;;;17.96;65.67;99520.41;5043360;28;20082;-70
2023/07/26 08:52:16;;;;;;;541.22;506.33;;;;;;;18.14;64.07;99523.22;5043552;28;20492;-70
2023/07/26 08:54:43;;;;;;;1114.97;999.15;;;;;;;18.14;63.59;99524.03;5043217;28;20750;-70
2023/07/26 08:57:08;;;;;;;985.33;896.95;;;;;;;18.04;63.51;99525.13;5042936;28;20127;-71
2023/07/26 08:59:33;;;;;;;977.60;897.72;;;;;;;18.17;63.18;99517.88;5042803;28;20047;-70
2023/07/26 09:02:00;;;;;;;1026.20;928.30;;;;;;;18.34;63.62;99512.72;5042980;28;20413;-72
2023/07/26 09:04:26;;;;;;;982.78;893.90;;;;;;;18.40;62.81;99514.19;5033914;28;20087;-70
2023/07/26 09:06:52;;;;;;;868.03;794.08;;;;;;;18.54;62.55;99516.78;5043221;28;20056;-70
2023/07/26 09:09:18;;;;;;;787.10;726.22;;;;;;;18.73;62.38;99502.63;5042855;28;20072;-70
2023/07/26 09:11:50;;;;;;;840.97;779.03;;;;;;;18.82;61.54;99507.31;5043095;28;20036;-70
2023/07/26 09:14:16;;;;;;;962.50;889.13;;;;;;;18.94;61.58;99499.19;5043281;28;20047;-71
2023/07/26 09:16:41;;;;;;;659.97;613.17;;;;;;;18.88;60.83;99495.78;5043465;28;20036;-70
2023/07/26 09:19:06;;;;;;;135.20;127.17;;;;;;;18.91;59.54;99494.34;5042650;28;20071;-71
2023/07/26 09:21:33;;;;;;;234.13;222.00;;;;;;;19.05;58.73;99487.78;5043064;28;20315;-70
2023/07/26 09:24:00;;;;;;;994.63;902.95;;;;;;;19.22;57.84;99481.44;5042800;28;20258;-71
2023/07/26 09:26:35;;;;;;;1999.90;999.90;;;;;;;19.15;57.33;99479.19;5043240;28;20040;-71
2023/07/26 09:29:01;;;;;;;1999.90;999.90;;;;;;;19.45;57.50;99473.69;5042319;28;20037;-72
2023/07/26 09:31:33;;;;;;;1999.90;999.90;;;;;;;19.50;57.45;99474.66;5043209;28;20040;-70
2023/07/26 09:34:04;;;;;;;1999.90;999.90;;;;;;;19.42;57.86;99479.91;5042295;28;20036;-70
2023/07/26 09:36:45;;;;;;;1999.90;999.90;;;;;;;19.33;56.62;99471.63;5042669;28;20089;-70
2023/07/26 09:39:12;;;;;;;1999.90;999.90;;;;;;;19.09;57.89;99474.94;5042522;28;20032;-70
2023/07/26 09:41:38;;;;;;;1999.90;999.90;;;;;;;19.02;58.32;99481.78;5042622;28;20033;-70
2023/07/26 09:44:07;;;;;;;1150.75;999.90;;;;;;;19.01;59.37;99491.22;5042911;28;20025;-71
2023/07/26 09:46:53;;;;;;;1032.00;927.85;;;;;;;18.94;60.68;99518.53;5042725;28;20403;-71
2023/07/26 09:49:22;;;;;;;897.47;801.75;;;;;;;18.23;61.78;99545.31;5042439;28;20116;-70
2023/07/26 09:51:48;;;;;;;65.07;61.03;;;;;;;17.91;63.15;99565.50;5042730;28;20039;-70
2023/07/26 09:54:14;;;;;;;689.10;644.35;;;;;;;17.66;65.39;99587.13;5042306;28;20414;-70
2023/07/26 09:56:41;;;;;;;1060.78;980.55;;;;;;;17.59;66.38;99590.31;5042099;28;20036;-70
2023/07/26 09:59:09;;;;;;;1060.32;975.35;;;;;;;17.19;66.72;99604.06;5041979;28;20043;-71
2023/07/26 10:01:40;;;;;;;1075.65;993.08;;;;;;;16.81;67.92;99592.25;5042024;28;20040;-72
2023/07/26 10:04:10;;;;;;;944.05;877.15;;;;;;;16.65;68.56;99580.78;5042673;28;20047;-70
2023/07/26 10:06:37;;;;;;;975.28;906.17;;;;;;;16.35;69.80;99570.16;5042099;28;20035;-70
2023/07/26 10:09:02;;;;;;;999.33;928.42;;;;;;;16.37;69.65;99562.41;5041767;28;20428;-70
2023/07/26 10:11:29;;;;;;;645.67;603.05;;;;;;;16.62;69.45;99554.69;5041919;28;20028;-70
2023/07/26 10:13:57;;;;;;;717.60;664.75;;;;;;;16.54;69.67;99555.41;5041937;28;20037;-70
2023/07/26 10:16:24;;;;;;;741.95;685.33;;;;;;;16.25;70.59;99535.41;5042126;28;20020;-70
2023/07/26 10:18:51;;;;;;;599.90;555.85;;;;;;;15.97;72.26;99541.75;5041522;28;20495;-70
2023/07/26 10:21:19;;;;;;;820.17;761.60;;;;;;;16.38;70.84;99544.78;5042174;28;20037;-70
2023/07/26 10:23:46;;;;;;;764.17;709.45;;;;;;;16.42;70.72;99537.53;5042050;28;20045;-70
2023/07/26 10:26:13;;;;;;;792.75;732.40;;;;;;;16.27;69.58;99546.13;5042154;28;20059;-71
2023/07/26 10:28:39;;;;;;;771.55;715.28;;;;;;;16.47;70.13;99538.53;5041753;28;20044;-70
2023/07/26 10:31:04;;;;;;;886.25;824.05;;;;;;;16.79;70.50;99544.94;5041717;28;20036;-70
2023/07/26 10:33:29;;;;;;;732.28;680.63;;;;;;;16.99;70.00;99559.31;5041740;28;20033;-71
2023/07/26 10:35:55;;;;;;;813.90;756.28;;;;;;;17.13;69.65;99551.03;5023768;28;20462;-71
2023/07/26 10:38:21;;;;;;;727.72;678.63;;;;;;;17.30;68.95;99539.31;5041774;28;20041;-70
2023/07/26 10:40:47;;;;;;;844.38;780.47;;;;;;;17.21;70.40;99544.75;5041186;28;20064;-71
2023/07/26 10:43:39;;;;;;;848.95;785.13;;;;;;;17.36;70.55;99539.97;5042143;28;20044;-71
2023/07/26 10:46:10;;;;;;;893.90;824.58;;;;;;;17.68;70.23;99534.44;5042047;28;20053;-70
2023/07/26 10:48:38;;;;;;;1038.20;954.90;;;;;;;17.75;69.33;99526.53;5041398;28;20710;-70
2023/07/26 10:51:20;;;;;;;1032.50;950.60;;;;;;;18.02;69.62;99521.88;5041508;28;20099;-70
2023/07/26 10:53:46;;;;;;;1015.92;938.63;;;;;;;18.33;70.47;99522.94;5041766;28;20045;-70
2023/07/26 10:56:17;;;;;;;895.47;828.17;;;;;;;18.48;69.58;99521.66;5041644;28;20043;-70
2023/07/26 10:58:56;;;;;;;1076.97;985.55;;;;;;;18.77;68.90;99522.13;5041011;28;21149;-71